Time;durP1;ratioP1;P1;durP2;ratioP2;P2;SDS_P1;SDS_P2;PMS_P1;PMS_P2;Temp;Humidity;BMP_temperature;BMP_pressure;BME280_temperature;BME280_humidity;BME280_pressure;Samples;Min_cycle;Max_cycle;Signal;HPM_P1;HPM_P2
2024/04/14 00:01:07;;;;;;;8.20;7.40;;;;;;;13.24;100.00;100395.54;179499;1260;58998;-70
2024/04/14 00:05:31;;;;;;;10.20;8.30;;;;;;;13.31;100.00;100392.78;179439;1262;46051;-71
2024/04/14 00:09:35;;;;;;;11.30;7.80;;;;;;;13.31;100.00;100385.06;179300;1263;44968;-72
2024/04/14 00:13:38;;;;;;;12.30;8.20;;;;;;;13.29;100.00;100383.11;179277;1260;43872;-70
2024/04/14 00:17:41;;;;;;;9.80;6.70;;;;;;;13.29;100.00;100379.39;179464;1261;43918;-72
2024/04/14 00:21:45;;;;;;;11.20;7.30;;;;;;;13.23;100.00;100374.25;179569;1261;58925;-71
2024/04/14 00:25:48;;;;;;;14.10;12.60;;;;;;;13.18;100.00;100369.49;179440;1260;43672;-71
2024/04/14 00:29:52;;;;;;;20.10;14.90;;;;;;;13.19;100.00;100363.54;179590;1264;44556;-71
2024/04/14 00:33:55;;;;;;;14.20;12.50;;;;;;;13.21;100.00;100358.36;179514;1264;46052;-70
2024/04/14 00:37:58;;;;;;;10.00;8.70;;;;;;;13.25;100.00;100351.41;179560;1261;45977;-72
2024/04/14 00:42:01;;;;;;;10.50;8.30;;;;;;;13.31;100.00;100348.91;179701;1263;58983;-70
2024/04/14 00:46:04;;;;;;;7.00;6.40;;;;;;;13.35;100.00;100343.92;179781;1261;43608;-70
2024/04/14 00:50:09;;;;;;;50.70;10.80;;;;;;;13.43;100.00;100335.95;179605;1260;46087;-71
2024/04/14 00:54:17;;;;;;;10.30;6.00;;;;;;;13.52;100.00;100327.06;179549;1262;44885;-72
2024/04/14 00:58:21;;;;;;;4.80;4.40;;;;;;;13.62;100.00;100326.73;179746;1261;45896;-71
2024/04/14 01:02:27;;;;;;;9.30;6.20;;;;;;;13.75;100.00;100322.83;179674;1262;58967;-72
2024/04/14 01:06:31;;;;;;;7.40;4.60;;;;;;;13.86;100.00;100313.55;179671;1261;45966;-71
2024/04/14 01:10:38;;;;;;;8.40;5.20;;;;;;;13.98;100.00;100311.20;179473;1265;46046;-71
2024/04/14 01:14:41;;;;;;;7.70;5.80;;;;;;;14.06;100.00;100303.82;179526;1261;46060;-71
2024/04/14 01:18:47;;;;;;;7.00;5.10;;;;;;;14.16;100.00;100299.13;179254;1261;43574;-71
2024/04/14 01:22:52;;;;;;;6.70;4.00;;;;;;;14.26;100.00;100291.91;179604;1259;58955;-71
2024/04/14 01:26:54;;;;;;;5.60;5.10;;;;;;;14.33;100.00;100282.85;179516;1260;46029;-71
2024/04/14 01:31:28;;;;;;;6.90;5.10;;;;;;;14.41;100.00;100282.63;179679;1261;43801;-71
2024/04/14 01:35:32;;;;;;;6.60;4.60;;;;;;;14.45;100.00;100281.49;179550;1263;44832;-71
2024/04/14 01:39:35;;;;;;;5.20;4.20;;;;;;;14.47;100.00;100277.61;179722;1262;43749;-71
2024/04/14 01:43:38;;;;;;;5.00;4.20;;;;;;;14.47;100.00;100273.70;179392;1260;58545;-71
2024/04/14 01:47:41;;;;;;;5.70;4.20;;;;;;;14.47;100.00;100273.27;179836;1264;44749;-72
2024/04/14 01:51:44;;;;;;;5.00;4.40;;;;;;;14.48;100.00;100265.58;179737;1260;46116;-71
2024/04/14 01:55:48;;;;;;;6.90;5.00;;;;;;;14.48;100.00;100262.45;179731;1260;45953;-70
2024/04/14 01:59:51;;;;;;;7.70;4.50;;;;;;;14.50;100.00;100258.05;179659;1263;43519;-71
2024/04/14 02:03:55;;;;;;;4.20;3.80;;;;;;;14.49;100.00;100261.69;179798;1260;58456;-71
2024/04/14 02:07:58;;;;;;;8.30;4.70;;;;;;;14.46;100.00;100253.56;179636;1260;44028;-71
2024/04/14 02:12:01;;;;;;;4.40;3.50;;;;;;;14.44;100.00;100246.84;179815;1261;43775;-71
2024/04/14 02:16:06;;;;;;;4.80;4.10;;;;;;;14.42;100.00;100241.95;179669;1261;44742;-70
2024/04/14 02:20:10;;;;;;;4.50;3.80;;;;;;;14.40;100.00;100231.86;179830;1263;43832;-71
2024/04/14 02:24:15;;;;;;;4.60;4.00;;;;;;;14.39;100.00;100230.89;179780;1261;58537;-70
2024/04/14 02:28:20;;;;;;;3.90;3.50;;;;;;;14.41;100.00;100228.34;179769;1261;45882;-71
2024/04/14 02:32:23;;;;;;;4.30;3.40;;;;;;;14.43;100.00;100225.66;179831;1261;45899;-71
2024/04/14 02:36:33;;;;;;;3.50;3.20;;;;;;;14.43;100.00;100219.58;179782;1261;44012;-72
2024/04/14 02:40:37;;;;;;;3.70;3.00;;;;;;;14.41;100.00;100213.37;179620;1260;45966;-71
2024/04/14 02:44:39;;;;;;;4.00;3.60;;;;;;;14.39;100.00;100211.66;179605;1264;58398;-71
2024/04/14 02:48:48;;;;;;;9.60;4.80;;;;;;;14.36;100.00;100207.42;179766;1264;45889;-70
2024/04/14 02:52:51;;;;;;;4.80;3.70;;;;;;;14.34;100.00;100200.00;179817;1265;46092;-71
2024/04/14 02:56:55;;;;;;;3.80;3.40;;;;;;;14.37;100.00;100190.59;179560;1262;46061;-71
2024/04/14 03:01:00;;;;;;;3.40;2.90;;;;;;;14.39;100.00;100184.80;179594;1261;44947;-71
2024/04/14 03:05:05;;;;;;;4.50;3.10;;;;;;;14.44;100.00;100179.08;179790;1262;60175;-70
2024/04/14 03:09:10;;;;;;;3.40;2.50;;;;;;;14.49;100.00;100176.73;179390;1261;43861;-71
2024/04/14 03:13:13;;;;;;;3.20;2.10;;;;;;;14.52;100.00;100171.45;179421;1263;46156;-70
2024/04/14 03:17:20;;;;;;;2.90;2.30;;;;;;;14.51;100.00;100167.42;179728;1265;43805;-71
2024/04/14 03:21:24;;;;;;;3.20;2.30;;;;;;;14.53;100.00;100168.31;179711;1263;44569;-71
2024/04/14 03:25:27;;;;;;;3.60;2.20;;;;;;;14.59;100.00;100172.89;179607;1262;59126;-71
2024/04/14 03:29:30;;;;;;;2.90;2.10;;;;;;;14.62;100.00;100174.05;179711;1262;46015;-71
2024/04/14 03:33:37;;;;;;;4.00;2.70;;;;;;;14.66;100.00;100172.57;179747;1261;46475;-71
2024/04/14 03:37:40;;;;;;;2.40;1.90;;;;;;;14.72;100.00;100167.71;179739;1263;43977;-71
2024/04/14 03:41:43;;;;;;;4.40;2.20;;;;;;;14.82;100.00;100165.13;179709;1262;45983;-71
2024/04/14 03:45:46;;;;;;;6.00;3.60;;;;;;;14.91;100.00;100160.13;179788;1263;57298;-71
2024/04/14 03:49:49;;;;;;;5.10;2.30;;;;;;;15.06;100.00;100166.05;179916;1263;45881;-71
2024/04/14 03:53:52;;;;;;;3.40;1.80;;;;;;;15.20;99.83;100170.69;179796;1262;45968;-71
2024/04/14 03:57:56;;;;;;;4.10;1.80;;;;;;;15.35;98.70;100165.77;179884;1263;45886;-70
2024/04/14 04:02:24;;;;;;;2.80;2.60;;;;;;;15.52;97.48;100161.89;179931;1262;45953;-71
2024/04/14 04:06:28;;;;;;;2.20;1.60;;;;;;;15.65;97.22;100167.48;179964;1265;58661;-70
2024/04/14 04:10:31;;;;;;;3.90;1.90;;;;;;;15.70;96.23;100165.30;179720;1263;45959;-71
2024/04/14 04:14:34;;;;;;;3.10;1.70;;;;;;;15.77;95.78;100161.75;179856;1262;44634;-70
2024/04/14 04:18:37;;;;;;;3.00;1.60;;;;;;;15.85;95.27;100160.76;180075;1261;44810;-71
2024/04/14 04:22:41;;;;;;;27.10;5.60;;;;;;;15.95;94.69;100164.91;180126;1263;43552;-70
2024/04/14 04:26:44;;;;;;;2.00;1.80;;;;;;;16.06;94.75;100162.23;180045;1263;58931;-71
2024/04/14 04:30:50;;;;;;;3.20;1.40;;;;;;;16.12;94.80;100164.88;180026;1261;44998;-70
2024/04/14 04:35:18;;;;;;;2.20;2.00;;;;;;;16.21;94.28;100162.38;179850;1263;43611;-70
2024/04/14 04:39:22;;;;;;;4.00;1.50;;;;;;;16.36;93.56;100167.89;179979;1261;43584;-70
2024/04/14 04:43:29;;;;;;;2.20;1.70;;;;;;;16.46;93.53;100167.59;179903;1261;43819;-70
2024/04/14 04:47:31;;;;;;;;;;;;;;;16.53;93.65;100162.96;180012;1263;58028;-70
2024/04/14 04:51:35;;;;;;;3.50;2.10;;;;;;;16.60;93.24;100163.87;179959;1262;45856;-70
2024/04/14 04:55:39;;;;;;;2.60;1.50;;;;;;;16.71;92.56;100170.13;179843;1262;45979;-69
2024/04/14 04:59:42;;;;;;;3.50;1.60;;;;;;;16.88;92.30;100166.02;179626;1264;45922;-70
2024/04/14 05:04:01;;;;;;;2.00;1.50;;;;;;;17.01;92.48;100167.27;179908;1263;46038;-69
2024/04/14 05:08:05;;;;;;;2.50;1.80;;;;;;;17.12;91.37;100164.33;180092;1263;58779;-70
2024/04/14 05:12:08;;;;;;;1.50;1.40;;;;;;;17.24;91.54;100168.70;180219;1263;44743;-70
2024/04/14 05:16:13;;;;;;;6.30;2.40;;;;;;;17.38;90.83;100170.20;180145;1262;43637;-70
2024/04/14 05:20:32;;;;;;;3.90;2.80;;;;;;;17.58;90.71;100167.57;180078;1262;43666;-70
2024/04/14 05:25:03;;;;;;;2.70;2.40;;;;;;;17.75;90.40;100172.37;179932;1262;43556;-70
2024/04/14 05:29:28;;;;;;;4.00;2.40;;;;;;;17.94;89.54;100169.98;180277;1261;57504;-70
2024/04/14 05:33:33;;;;;;;2.40;1.70;;;;;;;18.12;89.01;100173.16;180140;1263;46014;-70
2024/04/14 05:37:38;;;;;;;5.70;2.30;;;;;;;18.23;88.51;100171.66;180270;1261;46018;-70
2024/04/14 05:41:43;;;;;;;3.90;2.60;;;;;;;18.34;88.26;100175.63;180193;1262;43680;-69
2024/04/14 05:45:47;;;;;;;1.80;1.50;;;;;;;18.48;88.87;100174.05;180260;1263;43583;-70
2024/04/14 05:49:51;;;;;;;2.00;1.90;;;;;;;18.62;88.11;100173.34;180261;1261;57406;-70
2024/04/14 05:53:56;;;;;;;3.00;1.70;;;;;;;18.74;88.59;100176.56;180174;1261;43578;-69
2024/04/14 05:58:00;;;;;;;3.90;2.20;;;;;;;18.92;87.37;100175.67;180361;1260;46046;-70
2024/04/14 06:02:04;;;;;;;3.40;2.10;;;;;;;19.14;87.33;100178.35;180291;1260;45985;-70
2024/04/14 06:06:07;;;;;;;2.60;1.80;;;;;;;19.37;87.29;100177.56;180228;1261;43646;-69
2024/04/14 06:10:10;;;;;;;2.00;1.90;;;;;;;19.57;85.73;100171.96;180224;1261;58942;-70
2024/04/14 06:19:29;;;;;;;4.40;2.50;;;;;;;19.96;84.60;100163.77;153059;1257;92266;-69
2024/04/14 06:23:42;;;;;;;3.40;2.10;;;;;;;20.02;82.67;100170.29;156980;1258;91491;-69
2024/04/14 06:27:52;;;;;;;4.50;2.60;;;;;;;20.07;84.24;100177.48;180792;1254;92734;-70
2024/04/14 06:32:05;;;;;;;2.70;2.50;;;;;;;20.14;83.92;100184.08;180863;1261;93062;-67
2024/04/14 06:50:39;;;;;;;7.60;1.90;;;;;;;20.42;83.94;100187.22;154140;1254;90328;-69
2024/04/14 06:54:48;;;;;;;6.10;1.70;;;;;;;20.60;84.18;100191.87;180857;1260;89333;-69
2024/04/14 07:04:23;;;;;;;6.80;2.20;;;;;;;20.99;84.41;100200.16;155977;1258;87666;-68
2024/04/14 07:13:40;;;;;;;5.80;3.20;;;;;;;20.93;83.56;100190.85;153946;1263;88496;-68
2024/04/14 07:18:01;;;;;;;4.90;2.40;;;;;;;20.95;84.44;100189.86;180728;1257;85877;31
2024/04/14 07:22:27;;;;;;;7.60;3.70;;;;;;;20.89;83.38;100186.84;158580;1263;88534;-69
2024/04/14 07:27:19;;;;;;;6.90;2.80;;;;;;;20.90;84.63;100190.44;152963;1261;90219;-69
2024/04/14 07:31:31;;;;;;;4.40;3.40;;;;;;;20.93;83.69;100186.77;178352;1264;88632;-70
2024/04/14 07:35:34;;;;;;;4.90;3.00;;;;;;;20.93;85.55;100189.39;179996;1264;43535;-69
2024/04/14 07:40:27;;;;;;;4.60;2.40;;;;;;;20.99;87.37;100196.50;180134;1264;57882;-70
2024/04/14 07:44:31;;;;;;;2.40;2.20;;;;;;;20.93;84.98;100193.39;180174;1264;43774;-69
2024/04/14 07:48:34;;;;;;;6.20;2.70;;;;;;;20.98;85.99;100192.51;180090;1264;45859;-69
2024/04/14 07:52:37;;;;;;;3.80;2.10;;;;;;;21.17;85.21;100199.24;180170;1264;43623;-69
2024/04/14 07:56:40;;;;;;;2.60;2.10;;;;;;;21.08;79.80;100203.30;180044;1264;43743;-69
2024/04/14 08:00:45;;;;;;;3.80;2.00;;;;;;;21.08;80.30;100199.52;179944;1264;60551;-69
2024/04/14 08:04:49;;;;;;;4.70;2.10;;;;;;;21.13;82.32;100200.38;179982;1264;43769;-69
2024/04/14 08:08:53;;;;;;;6.30;2.40;;;;;;;21.24;82.70;100198.42;179954;1264;43566;-69
2024/04/14 08:12:56;;;;;;;4.00;2.50;;;;;;;21.30;81.82;100199.45;180080;1266;43748;-69
2024/04/14 08:17:33;;;;;;;22.00;5.60;;;;;;;21.30;81.70;100196.16;180064;1263;43665;-70
2024/04/14 08:21:36;;;;;;;7.30;2.40;;;;;;;21.46;83.44;100199.34;180085;1266;58224;-69
2024/04/14 08:25:51;;;;;;;17.90;4.30;;;;;;;21.59;85.09;100204.10;179915;1265;118949;-68
2024/04/14 08:29:59;;;;;;;6.80;3.50;;;;;;;21.59;80.62;100199.33;180125;1263;43589;-69
2024/04/14 08:34:03;;;;;;;2.80;2.60;;;;;;;21.61;81.75;100198.91;179933;1262;43804;-69
2024/04/14 08:38:10;;;;;;;6.40;2.30;;;;;;;21.66;82.48;100211.27;180115;1263;46028;-69
2024/04/14 08:42:15;;;;;;;7.40;3.20;;;;;;;21.64;84.38;100207.15;180002;1265;57684;-69
2024/04/14 08:46:21;;;;;;;5.10;3.10;;;;;;;21.42;84.36;100208.64;180226;1262;45915;-69
2024/04/14 08:50:26;;;;;;;3.60;3.20;;;;;;;21.12;83.00;100207.87;180189;1262;43573;-69
2024/04/14 09:00:21;;;;;;;3.30;2.90;;;;;;;20.72;87.18;100215.06;180190;1262;46024;-69
2024/04/14 09:04:24;;;;;;;3.80;2.70;;;;;;;20.75;87.08;100218.28;180239;1264;58717;-69
2024/04/14 09:08:28;;;;;;;5.20;3.00;;;;;;;20.95;86.19;100216.35;180097;1264;46060;-69
2024/04/14 09:12:32;;;;;;;3.80;3.10;;;;;;;20.89;87.43;100220.47;180314;1263;45242;-70
2024/04/14 09:16:35;;;;;;;5.50;3.60;;;;;;;20.90;85.36;100226.30;179929;1264;44987;-70
2024/04/14 09:20:39;;;;;;;5.40;3.40;;;;;;;21.00;82.22;100221.59;180167;1265;43531;-69
2024/04/14 09:25:04;;;;;;;5.30;2.80;;;;;;;21.04;78.02;100228.52;180166;1265;58471;-69
2024/04/14 09:29:08;;;;;;;9.10;3.50;;;;;;;20.95;80.21;100236.20;180179;1263;43567;-70
2024/04/14 09:33:11;;;;;;;3.70;3.20;;;;;;;20.83;77.35;100234.23;180382;1262;44550;-69
2024/04/14 09:37:18;;;;;;;9.90;3.40;;;;;;;20.66;78.43;100238.66;180203;1263;45889;-69
2024/04/14 09:41:22;;;;;;;5.00;2.90;;;;;;;20.90;78.26;100233.12;180195;1263;44648;-70
2024/04/14 09:46:02;;;;;;;2.80;2.60;;;;;;;21.11;76.35;100242.40;180302;1262;58450;-70
2024/04/14 09:50:09;;;;;;;5.10;3.40;;;;;;;21.18;75.94;100236.11;180220;1263;43708;-70
2024/04/14 09:54:16;;;;;;;3.80;2.70;;;;;;;21.06;75.62;100236.20;180127;1262;45977;-69
2024/04/14 09:58:19;;;;;;;11.10;4.60;;;;;;;20.92;77.29;100245.48;180324;1263;44711;-70
2024/04/14 10:07:47;;;;;;;8.30;3.30;;;;;;;20.88;81.03;100247.00;157529;1256;88066;31
2024/04/14 10:11:55;;;;;;;4.40;4.00;;;;;;;20.86;76.88;100245.23;164529;1257;87090;-68
2024/04/14 10:20:51;;;;;;;8.00;3.30;;;;;;;20.75;75.10;100248.44;178577;1256;89613;31
2024/04/14 10:25:25;;;;;;;7.30;2.70;;;;;;;20.61;74.69;100257.15;156257;1258;86948;-70
2024/04/14 10:29:28;;;;;;;8.00;3.30;;;;;;;20.59;73.34;100250.40;169195;1261;93383;-82
2024/04/14 10:33:31;;;;;;;5.00;2.90;;;;;;;20.57;76.27;100250.09;178055;1262;46132;-83
2024/04/14 10:37:35;;;;;;;3.50;3.00;;;;;;;20.52;75.24;100248.16;179131;1263;44050;-83
2024/04/14 10:41:38;;;;;;;3.90;3.00;;;;;;;20.37;76.27;100254.12;177998;1261;46096;-85
2024/04/14 10:45:41;;;;;;;4.40;3.50;;;;;;;20.62;78.62;100241.90;178219;1263;46067;-84
2024/04/14 10:49:49;;;;;;;5.20;4.30;;;;;;;20.62;77.55;100246.02;178310;1262;59453;-84
2024/04/14 10:53:53;;;;;;;2.50;2.20;;;;;;;20.67;76.33;100252.29;178135;1262;44040;-83
2024/04/14 10:57:56;;;;;;;4.80;3.40;;;;;;;20.72;77.79;100250.69;177806;1262;46182;-84
2024/04/14 11:02:00;;;;;;;3.30;3.00;;;;;;;20.79;76.75;100248.55;177429;1264;45247;-85
2024/04/14 11:06:04;;;;;;;9.40;5.10;;;;;;;20.84;79.53;100251.02;177282;1262;46134;-84
2024/04/14 11:10:08;;;;;;;4.10;3.30;;;;;;;21.00;78.53;100244.23;177496;1266;60229;-85
2024/04/14 11:14:17;;;;;;;27.00;8.10;;;;;;;20.90;77.72;100247.24;177641;1263;44855;-83
2024/04/14 11:18:20;;;;;;;4.30;3.40;;;;;;;20.60;76.45;100246.67;177193;1264;46117;-83
2024/04/14 11:22:23;;;;;;;6.00;2.70;;;;;;;20.48;76.56;100242.23;177439;1265;44507;-82
2024/04/14 11:26:26;;;;;;;3.80;2.90;;;;;;;20.41;75.48;100245.73;177096;1263;46183;-84
2024/04/14 11:30:31;;;;;;;11.30;3.90;;;;;;;20.48;72.62;100240.61;177425;1262;58209;-82
2024/04/14 11:34:34;;;;;;;5.30;2.30;;;;;;;20.49;74.04;100238.86;177537;1263;46084;-82
2024/04/14 11:38:38;;;;;;;4.10;3.40;;;;;;;20.45;75.16;100239.86;177444;1262;46132;-82
2024/04/14 11:42:41;;;;;;;5.70;3.30;;;;;;;20.74;76.65;100246.52;177452;1262;46137;-82
2024/04/14 11:46:44;;;;;;;6.00;2.80;;;;;;;21.01;75.94;100247.17;177206;1267;46133;-83
2024/04/14 11:50:46;;;;;;;20.50;4.20;;;;;;;21.01;74.24;100241.23;177311;1265;59728;-82
2024/04/14 11:54:50;;;;;;;4.90;3.80;;;;;;;21.03;73.29;100240.95;177567;1263;46195;-83
2024/04/14 11:58:52;;;;;;;5.10;3.30;;;;;;;21.06;69.88;100246.02;178450;1263;44799;-82
2024/04/14 12:02:55;;;;;;;5.20;2.50;;;;;;;21.07;68.28;100243.12;178083;1263;46014;-83
2024/04/14 12:06:58;;;;;;;3.80;3.10;;;;;;;20.93;68.91;100241.22;177375;1263;44919;-83
2024/04/14 12:11:01;;;;;;;5.50;2.60;;;;;;;20.79;69.05;100239.73;177276;1265;58333;-84
2024/04/14 12:15:04;;;;;;;4.10;2.50;;;;;;;20.70;70.27;100243.56;177660;1261;46075;-85
2024/04/14 12:19:07;;;;;;;12.90;3.30;;;;;;;20.74;70.01;100245.50;177337;1264;46244;-84
2024/04/14 12:23:10;;;;;;;4.30;2.30;;;;;;;20.59;69.73;100241.13;177182;1265;46190;-84
2024/04/14 12:27:13;;;;;;;5.90;2.50;;;;;;;20.55;69.45;100243.48;177100;1263;46025;-84
2024/04/14 12:31:16;;;;;;;5.40;2.90;;;;;;;20.49;70.46;100239.52;178090;1264;57936;-84
2024/04/14 12:35:19;;;;;;;3.90;2.30;;;;;;;20.64;70.12;100239.09;177244;1263;46001;-84
2024/04/14 12:39:22;;;;;;;3.70;2.10;;;;;;;20.85;70.79;100235.23;177420;1265;45931;-84
2024/04/14 12:43:33;;;;;;;4.00;2.00;;;;;;;20.63;70.73;100236.75;177082;1263;46142;-84
2024/04/14 12:47:36;;;;;;;5.80;2.60;;;;;;;20.33;72.87;100229.20;177260;1263;46041;-84
2024/04/14 12:51:38;;;;;;;7.30;2.60;;;;;;;20.37;69.55;100226.36;176971;1266;58069;-84
2024/04/14 12:55:41;;;;;;;7.40;2.90;;;;;;;20.43;71.87;100230.91;177425;1264;45972;-83
2024/04/14 12:59:44;;;;;;;6.30;2.40;;;;;;;20.48;71.00;100218.83;177145;1265;46126;-84
2024/04/14 13:03:47;;;;;;;12.80;2.70;;;;;;;20.52;70.08;100228.58;177046;1266;46067;-84
2024/04/14 13:07:50;;;;;;;11.70;4.20;;;;;;;20.45;70.16;100228.73;177046;1263;46164;-83
2024/04/14 13:11:53;;;;;;;10.90;2.90;;;;;;;20.40;71.71;100229.14;177094;1263;60125;-84
2024/04/14 13:15:56;;;;;;;3.30;1.50;;;;;;;20.33;68.69;100228.15;177304;1263;44075;-84
2024/04/14 13:19:59;;;;;;;5.10;2.30;;;;;;;20.31;69.06;100223.18;177271;1266;46187;-84
2024/04/14 13:24:02;;;;;;;2.60;2.10;;;;;;;20.60;69.79;100224.23;177439;1262;44500;-85
2024/04/14 13:28:05;;;;;;;3.50;2.10;;;;;;;20.56;69.10;100228.33;177294;1263;44700;-84
2024/04/14 13:32:08;;;;;;;2.90;2.00;;;;;;;20.63;71.47;100223.04;177358;1264;58002;-85
2024/04/14 13:36:11;;;;;;;14.30;3.80;;;;;;;20.55;71.61;100231.02;177491;1265;46102;-83
2024/04/14 13:40:13;;;;;;;7.50;3.00;;;;;;;20.17;71.61;100222.58;178326;1263;46059;-84
2024/04/14 13:44:16;;;;;;;4.70;2.20;;;;;;;19.78;72.34;100225.13;177287;1264;46444;-85
2024/04/14 13:48:19;;;;;;;2.00;1.80;;;;;;;19.75;74.45;100222.77;177343;1262;46064;-85
2024/04/14 13:52:29;;;;;;;3.20;1.60;;;;;;;19.73;74.36;100217.64;177385;1265;59772;-84
2024/04/14 13:56:32;;;;;;;3.80;2.10;;;;;;;19.75;73.84;100217.77;177279;1263;45947;-84
2024/04/14 14:00:38;;;;;;;4.60;1.60;;;;;;;19.73;72.84;100211.32;176962;1265;46244;-85
2024/04/14 14:04:41;;;;;;;7.00;2.10;;;;;;;19.96;75.17;100207.88;177471;1265;46126;-83
2024/04/14 14:08:44;;;;;;;6.30;2.20;;;;;;;20.17;70.70;100201.02;177116;1263;46105;-84
2024/04/14 14:12:49;;;;;;;29.20;6.60;;;;;;;20.38;70.57;100190.89;177015;1265;58363;-83
2024/04/14 14:16:52;;;;;;;4.60;2.40;;;;;;;20.49;69.61;100192.66;176906;1264;46130;-85
2024/04/14 14:20:55;;;;;;;10.00;2.30;;;;;;;20.55;69.37;100194.45;177140;1265;46167;-85
2024/04/14 14:24:58;;;;;;;2.70;1.60;;;;;;;20.60;68.99;100189.64;177552;1266;46160;-84
2024/04/14 14:29:01;;;;;;;2.90;1.80;;;;;;;20.69;68.14;100187.38;178179;1266;46135;-85
2024/04/14 14:37:25;;;;;;;4.00;1.40;;;;;;;20.64;67.19;100189.45;177044;1263;46066;-85
2024/04/14 14:41:29;;;;;;;1.30;0.90;;;;;;;20.67;68.59;100190.61;177566;1262;46142;-85
2024/04/14 14:45:32;;;;;;;1.80;0.90;;;;;;;20.60;66.43;100194.03;177412;1264;45262;-83
2024/04/14 14:49:35;;;;;;;7.30;2.00;;;;;;;20.65;68.30;100199.48;176997;1263;46146;-84
2024/04/14 14:53:38;;;;;;;4.10;1.60;;;;;;;20.92;66.83;100195.79;178208;1264;57994;-85
2024/04/14 14:57:44;;;;;;;1.00;0.90;;;;;;;20.93;67.59;100204.65;177413;1264;46131;-82
2024/04/14 15:01:47;;;;;;;2.10;1.40;;;;;;;21.09;65.68;100204.89;176837;1264;46012;-82
2024/04/14 15:05:50;;;;;;;4.50;1.80;;;;;;;21.19;63.81;100198.30;177349;1264;46120;-83
2024/04/14 15:09:56;;;;;;;5.50;1.20;;;;;;;21.12;63.74;100191.67;177364;1264;44916;-82
2024/04/14 15:13:59;;;;;;;2.10;0.90;;;;;;;20.97;64.32;100191.04;177109;1264;60661;-82
2024/04/14 15:18:02;;;;;;;6.90;1.60;;;;;;;20.97;62.63;100193.95;177067;1263;46101;-82
2024/04/14 15:22:06;;;;;;;2.80;1.70;;;;;;;21.08;62.55;100195.80;177272;1263;46125;-83
2024/04/14 15:26:09;;;;;;;3.60;1.90;;;;;;;21.02;62.06;100193.11;177691;1263;46871;-81
2024/04/14 15:30:12;;;;;;;2.50;1.70;;;;;;;20.84;62.75;100193.17;177677;1263;46141;-83
2024/04/14 15:34:16;;;;;;;2.10;1.00;;;;;;;20.73;62.02;100194.60;177407;1266;58650;-82
2024/04/14 15:38:20;;;;;;;3.80;1.40;;;;;;;20.72;63.67;100197.55;177032;1265;46234;-82
2024/04/14 15:42:23;;;;;;;14.10;3.50;;;;;;;20.58;63.00;100194.11;177669;1262;45951;-84
2024/04/14 15:46:26;;;;;;;3.20;1.40;;;;;;;20.25;63.26;100189.96;177363;1262;45990;-84
2024/04/14 15:50:28;;;;;;;77.00;12.90;;;;;;;20.00;60.78;100188.66;177329;1262;45204;-84
2024/04/14 15:54:31;;;;;;;8.50;1.50;;;;;;;19.97;61.39;100190.25;177068;1262;58284;-84
2024/04/14 15:58:34;;;;;;;2.30;1.10;;;;;;;19.82;60.22;100191.71;176761;1263;46278;-84
2024/04/14 16:02:38;;;;;;;21.50;4.90;;;;;;;19.74;61.80;100185.64;177554;1266;46171;-84
2024/04/14 16:06:41;;;;;;;9.30;2.40;;;;;;;19.71;62.38;100187.71;177232;1264;46020;-84
2024/04/14 16:10:44;;;;;;;2.30;1.70;;;;;;;19.64;62.10;100190.45;177994;1266;46011;-84
2024/04/14 16:14:50;;;;;;;11.80;2.80;;;;;;;19.53;61.25;100193.45;178445;1266;57333;-83
2024/04/14 16:18:54;;;;;;;5.10;2.10;;;;;;;19.52;61.19;100187.84;177145;1266;46133;-84
2024/04/14 16:22:57;;;;;;;4.00;1.70;;;;;;;19.56;61.31;100186.12;176831;1266;46107;-83
2024/04/14 16:27:00;;;;;;;6.30;1.80;;;;;;;19.47;60.98;100182.48;176902;1264;46115;-82
2024/04/14 16:31:04;;;;;;;2.90;1.10;;;;;;;19.33;61.98;100185.36;176894;1265;46068;-83
2024/04/14 16:35:07;;;;;;;6.10;1.50;;;;;;;19.10;62.41;100196.83;177240;1263;59165;-83
2024/04/14 16:39:10;;;;;;;3.80;1.20;;;;;;;18.99;63.09;100190.73;177261;1264;46248;-83
2024/04/14 16:43:13;;;;;;;2.40;1.10;;;;;;;18.91;63.89;100186.70;177204;1264;46148;-84
2024/04/14 16:47:16;;;;;;;3.70;1.70;;;;;;;18.83;64.45;100183.64;177215;1262;46128;-84
2024/04/14 16:51:19;;;;;;;4.60;1.30;;;;;;;18.64;63.14;100183.23;177278;1262;46099;-83
2024/04/14 16:55:22;;;;;;;6.50;1.60;;;;;;;18.51;64.71;100182.48;178223;1264;59415;-84
2024/04/14 16:59:25;;;;;;;5.10;0.80;;;;;;;18.34;64.44;100183.71;179030;1263;46074;-84
2024/04/14 17:03:28;;;;;;;1.60;0.70;;;;;;;18.12;63.39;100185.73;177527;1263;45249;-82
2024/04/14 17:07:32;;;;;;;2.40;1.00;;;;;;;17.88;63.39;100194.16;177337;1263;46075;-82
2024/04/14 17:11:35;;;;;;;2.80;1.50;;;;;;;17.64;63.73;100203.52;177586;1265;46019;-85
2024/04/14 17:15:38;;;;;;;1.40;0.60;;;;;;;17.46;65.51;100205.90;176822;1264;58686;-84
2024/04/14 17:19:41;;;;;;;2.30;1.10;;;;;;;17.26;66.75;100210.42;176860;1264;46126;-84
2024/04/14 17:23:43;;;;;;;9.70;1.40;;;;;;;17.10;67.54;100212.64;177173;1262;46619;-84
2024/04/14 17:27:47;;;;;;;4.10;1.10;;;;;;;16.94;69.20;100214.95;177038;1261;46023;-83
2024/04/14 17:31:50;;;;;;;2.80;1.10;;;;;;;16.76;69.20;100216.56;177088;1262;46141;-84
2024/04/14 17:35:52;;;;;;;12.50;1.80;;;;;;;16.60;69.75;100211.86;176912;1262;59309;-84
2024/04/14 17:39:55;;;;;;;2.70;1.50;;;;;;;16.43;70.97;100218.70;176587;1263;46123;-84
2024/04/14 17:43:58;;;;;;;2.30;1.10;;;;;;;16.23;71.27;100221.14;176648;1267;46135;-84
2024/04/14 17:48:02;;;;;;;2.30;0.80;;;;;;;16.07;71.88;100224.46;176883;1262;46135;-84
2024/04/14 17:52:05;;;;;;;2.60;0.90;;;;;;;15.87;73.83;100226.33;176741;1262;46568;-85
2024/04/14 17:56:08;;;;;;;6.40;1.70;;;;;;;15.69;74.30;100225.50;176674;1261;59633;-85
2024/04/14 18:00:12;;;;;;;7.20;1.90;;;;;;;15.54;75.06;100230.33;176304;1266;45997;-84
2024/04/14 18:04:15;;;;;;;7.10;2.70;;;;;;;15.33;76.53;100242.20;176463;1264;46154;-84
2024/04/14 18:08:17;;;;;;;5.00;2.80;;;;;;;15.15;77.06;100237.80;176372;1263;46187;-83
2024/04/14 18:12:21;;;;;;;3.80;2.10;;;;;;;14.97;78.18;100243.16;177049;1262;46136;-83
2024/04/14 18:16:25;;;;;;;5.50;1.80;;;;;;;14.75;78.67;100244.54;177261;1261;58686;-84
2024/04/14 18:20:30;;;;;;;6.00;2.00;;;;;;;14.53;77.86;100252.23;177074;1262;46238;-84
2024/04/14 18:24:33;;;;;;;3.30;1.70;;;;;;;14.37;78.03;100257.31;176811;1264;46209;-84
2024/04/14 18:28:36;;;;;;;4.10;1.80;;;;;;;14.28;78.08;100262.11;176788;1263;46058;-83
2024/04/14 18:32:39;;;;;;;5.30;3.30;;;;;;;14.20;78.15;100271.28;176988;1262;46144;-84
2024/04/14 18:36:41;;;;;;;5.80;2.50;;;;;;;14.15;77.85;100274.95;176813;1262;59678;-83
2024/04/14 18:40:44;;;;;;;2.90;1.60;;;;;;;14.12;77.86;100282.75;176858;1263;46129;-84
2024/04/14 18:44:47;;;;;;;3.50;1.90;;;;;;;14.08;78.61;100283.85;176759;1260;46179;-83
2024/04/14 18:48:50;;;;;;;9.70;2.60;;;;;;;13.95;78.41;100291.14;176607;1265;46224;-83
2024/04/14 18:52:53;;;;;;;2.60;1.90;;;;;;;13.83;79.29;100293.71;176691;1264;46446;-84
2024/04/14 18:56:56;;;;;;;3.20;1.80;;;;;;;13.72;80.23;100291.67;176644;1263;59831;-83
2024/04/14 19:01:02;;;;;;;5.50;2.20;;;;;;;13.64;80.76;100298.02;177101;1261;46144;-84
2024/04/14 19:05:06;;;;;;;8.40;1.60;;;;;;;13.53;82.74;100303.11;176658;1262;46465;-83
2024/04/14 19:09:09;;;;;;;7.70;1.80;;;;;;;13.38;83.57;100307.21;177460;1263;46025;-85
2024/04/14 19:13:12;;;;;;;8.20;4.60;;;;;;;13.29;84.73;100310.48;178659;1262;46946;-83
2024/04/14 19:17:17;;;;;;;6.60;3.60;;;;;;;13.26;85.80;100315.14;179055;1262;58701;-83
2024/04/14 19:21:20;;;;;;;4.10;3.30;;;;;;;13.24;86.69;100309.14;176976;1263;46165;-84
2024/04/14 19:25:23;;;;;;;44.50;10.50;;;;;;;13.18;87.67;100304.02;177704;1262;46125;-84
2024/04/14 19:29:27;;;;;;;18.80;5.20;;;;;;;13.03;89.22;100304.83;177008;1260;46129;-83
2024/04/14 19:33:30;;;;;;;4.60;2.80;;;;;;;12.97;89.32;100310.19;176699;1262;44148;-84